createdAt,value
2018-09-19T00:00:07.717Z,11.20
2018-09-19T00:02:38.012Z,20.63
2018-09-19T00:05:08.586Z,12.60
2018-09-19T00:07:39.092Z,13.40
2018-09-19T00:10:10.111Z,16.17
2018-09-19T00:12:40.566Z,15.87
2018-09-19T00:15:11.052Z,21.13
2018-09-19T00:17:41.530Z,12.93
2018-09-19T00:20:11.924Z,15.07
2018-09-19T00:22:42.485Z,18.43
2018-09-19T00:25:12.746Z,15.90
2018-09-19T00:27:43.151Z,14.40
2018-09-19T00:30:13.546Z,18.70
2018-09-19T00:32:44.008Z,20.00
2018-09-19T00:35:14.505Z,23.53
2018-09-19T00:37:44.897Z,19.10
2018-09-19T00:40:15.393Z,19.40
2018-09-19T00:42:45.691Z,18.77
2018-09-19T00:45:22.871Z,25.03
2018-09-19T00:47:53.154Z,22.53
2018-09-19T00:50:23.607Z,25.67
2018-09-19T00:52:53.941Z,32.80
2018-09-19T00:55:24.478Z,24.83
2018-09-19T00:57:54.955Z,26.70
2018-09-19T01:00:25.346Z,31.70
2018-09-19T01:02:55.717Z,22.47
2018-09-19T01:05:26.320Z,21.10
2018-09-19T01:07:56.704Z,23.83
2018-09-19T01:10:27.164Z,24.57
2018-09-19T01:12:57.468Z,28.73
2018-09-19T01:15:27.767Z,24.60
2018-09-19T01:17:58.144Z,34.27
2018-09-19T01:20:28.944Z,24.97
2018-09-19T01:22:59.452Z,24.73
2018-09-19T01:25:29.941Z,28.43
2018-09-19T01:28:00.408Z,33.87
2018-09-19T01:30:31.380Z,28.57
2018-09-19T01:33:01.873Z,31.17
2018-09-19T01:35:32.580Z,27.00
2018-09-19T01:38:03.035Z,29.07
2018-09-19T01:40:33.457Z,32.80
2018-09-19T01:43:03.933Z,29.80
2018-09-19T01:45:34.434Z,28.53
2018-09-19T01:48:05.038Z,31.07
2018-09-19T01:50:35.322Z,26.77
2018-09-19T01:53:05.783Z,39.60
2018-09-19T01:55:36.234Z,41.27
2018-09-19T01:58:06.646Z,28.60
2018-09-19T02:00:36.756Z,41.87
2018-09-19T02:03:07.297Z,36.93
2018-09-19T02:05:37.873Z,39.03
2018-09-19T02:08:08.250Z,32.77
2018-09-19T02:10:38.644Z,28.03
2018-09-19T02:13:09.051Z,30.30
2018-09-19T02:15:39.275Z,34.80
2018-09-19T02:18:09.656Z,27.63
2018-09-19T02:20:40.148Z,35.13
2018-09-19T02:23:10.548Z,31.00
2018-09-19T02:25:40.784Z,35.30
2018-09-19T02:28:11.261Z,39.90
2018-09-19T02:30:41.746Z,36.90
2018-09-19T02:33:11.952Z,32.53
2018-09-19T02:35:42.203Z,32.50
2018-09-19T02:38:12.496Z,40.77
2018-09-19T02:40:42.902Z,36.90
2018-09-19T02:43:13.284Z,33.27
2018-09-19T02:45:43.550Z,45.20
2018-09-19T02:48:13.892Z,36.90
2018-09-19T02:50:44.413Z,39.20
2018-09-19T02:53:14.857Z,36.30
2018-09-19T02:55:45.243Z,41.57
2018-09-19T02:58:15.541Z,37.77
2018-09-19T03:00:46.090Z,38.93
2018-09-19T03:03:16.496Z,42.87
2018-09-19T03:05:46.884Z,40.70
2018-09-19T03:08:17.145Z,43.30
2018-09-19T03:10:47.638Z,41.33
2018-09-19T03:13:18.120Z,47.47
2018-09-19T03:15:48.607Z,40.43
2018-09-19T03:18:19.254Z,39.33
2018-09-19T03:20:49.640Z,44.00
2018-09-19T03:23:19.938Z,39.70
2018-09-19T03:25:50.419Z,32.90
2018-09-19T03:28:20.831Z,39.77
2018-09-19T03:30:51.804Z,38.07
2018-09-19T03:33:22.199Z,41.83
2018-09-19T03:35:52.555Z,42.30
2018-09-19T03:38:22.952Z,39.53
2018-09-19T03:40:53.502Z,36.60
2018-09-19T03:43:23.919Z,40.63
2018-09-19T03:45:54.255Z,54.60
2018-09-19T03:48:24.649Z,42.17
2018-09-19T03:50:55.151Z,41.73
2018-09-19T03:53:26.049Z,40.53
2018-09-19T03:55:56.543Z,35.53
2018-09-19T03:58:27.140Z,31.67
2018-09-19T04:00:58.345Z,33.80
2018-09-19T04:03:28.675Z,38.17
2018-09-19T04:05:59.201Z,33.00
2018-09-19T04:08:29.427Z,43.30
2018-09-19T04:10:59.788Z,35.40
2018-09-19T04:13:30.072Z,43.43
2018-09-19T04:16:00.261Z,34.87
2018-09-19T04:18:30.639Z,43.77
2018-09-19T04:21:01.100Z,33.47
2018-09-19T04:23:31.331Z,27.63
2018-09-19T04:26:01.819Z,32.50
2018-09-19T04:28:32.181Z,30.10
2018-09-19T04:31:02.570Z,36.40
2018-09-19T04:33:32.900Z,29.07
2018-09-19T04:36:03.529Z,36.80
2018-09-19T04:38:34.009Z,33.83
2018-09-19T04:41:04.093Z,34.90
2018-09-19T04:43:34.172Z,32.93
2018-09-19T04:46:04.329Z,35.97
2018-09-19T04:48:34.393Z,31.07
2018-09-19T04:51:04.526Z,32.60
2018-09-19T04:53:34.635Z,26.60
2018-09-19T04:56:05.146Z,35.30
2018-09-19T04:58:35.584Z,26.17
2018-09-19T05:01:06.299Z,30.17
2018-09-19T05:03:36.792Z,30.60
2018-09-19T05:06:07.452Z,35.37
2018-09-19T05:08:38.049Z,28.37
2018-09-19T05:11:08.395Z,29.80
2018-09-19T05:13:38.625Z,33.63
2018-09-19T05:16:09.272Z,30.70
2018-09-19T05:18:39.566Z,34.70
2018-09-19T05:21:09.984Z,23.90
2018-09-19T05:23:40.220Z,25.20
2018-09-19T05:26:10.666Z,23.50
2018-09-19T05:28:41.365Z,21.23
2018-09-19T05:31:11.928Z,24.43
2018-09-19T05:33:42.373Z,22.60
2018-09-19T05:36:12.684Z,22.17
2018-09-19T05:38:42.984Z,18.83
2018-09-19T05:41:13.314Z,24.43
2018-09-19T05:43:43.638Z,25.70
2018-09-19T05:46:14.259Z,27.30
2018-09-19T05:48:44.649Z,19.73
2018-09-19T05:51:15.203Z,30.50
2018-09-19T05:53:45.708Z,22.93
2018-09-19T05:56:16.200Z,19.60
2018-09-19T05:58:46.660Z,32.43
2018-09-19T06:01:17.036Z,27.40
2018-09-19T06:03:47.883Z,20.93
2018-09-19T06:06:18.320Z,17.77
2018-09-19T06:08:49.691Z,18.37
2018-09-19T06:11:19.983Z,30.97
2018-09-19T06:13:51.296Z,12.97
2018-09-19T06:16:21.640Z,16.13
2018-09-19T06:18:52.317Z,14.13
2018-09-19T06:21:22.747Z,12.87
2018-09-19T06:23:53.142Z,13.77
2018-09-19T06:26:23.724Z,10.80
2018-09-19T06:28:54.227Z,15.50
2018-09-19T06:31:25.267Z,16.83
2018-09-19T06:33:55.631Z,11.00
2018-09-19T06:36:26.048Z,15.37
2018-09-19T06:38:56.304Z,10.47
2018-09-19T06:41:26.766Z,12.03
2018-09-19T06:43:57.166Z,21.37
2018-09-19T06:46:27.688Z,14.40
2018-09-19T06:48:58.054Z,10.87
2018-09-19T06:51:28.639Z,12.63
2018-09-19T06:53:59.089Z,13.93
2018-09-19T06:56:29.563Z,10.20
2018-09-19T06:58:59.881Z,17.93
2018-09-19T07:01:30.297Z,11.20
2018-09-19T07:04:00.597Z,14.23
2018-09-19T07:06:30.962Z,8.60
2018-09-19T07:09:01.280Z,7.90
2018-09-19T07:11:31.791Z,7.10
2018-09-19T07:14:02.300Z,10.07
2018-09-19T07:16:33.090Z,8.63
2018-09-19T07:19:03.584Z,10.90
2018-09-19T07:21:33.875Z,15.30
2018-09-19T07:24:04.305Z,9.13
2018-09-19T07:26:34.621Z,6.87
2018-09-19T07:29:05.180Z,10.60
2018-09-19T07:31:35.684Z,7.30
2018-09-19T07:34:06.288Z,10.73
2018-09-19T07:36:37.488Z,8.53
2018-09-19T07:39:11.468Z,12.17
2018-09-19T07:41:41.904Z,11.37
2018-09-19T07:44:12.431Z,14.57
2018-09-19T07:46:43.053Z,8.43
2018-09-19T07:49:13.468Z,9.03
2018-09-19T07:51:43.839Z,11.47
2018-09-19T07:54:14.151Z,6.00
2018-09-19T07:56:44.553Z,7.03
2018-09-19T07:59:15.095Z,9.97
2018-09-19T08:01:45.554Z,7.83
2018-09-19T08:04:16.059Z,9.10
2018-09-19T08:06:46.560Z,5.83
2018-09-19T08:09:17.129Z,10.20
2018-09-19T08:11:47.620Z,15.77
2018-09-19T08:14:18.040Z,14.57
2018-09-19T08:16:48.451Z,11.40
2018-09-19T08:19:18.804Z,9.57
2018-09-19T08:21:49.316Z,14.23
2018-09-19T08:24:19.668Z,8.40
2018-09-19T08:26:50.083Z,7.13
2018-09-19T08:29:20.518Z,7.50
2018-09-19T08:31:50.826Z,11.57
2018-09-19T08:34:21.409Z,11.87
2018-09-19T08:36:51.879Z,6.90
2018-09-19T08:39:22.259Z,6.03
2018-09-19T08:41:52.741Z,4.57
2018-09-19T08:44:23.196Z,6.03
2018-09-19T08:46:53.583Z,7.30
2018-09-19T08:49:23.981Z,7.47
2018-09-19T08:51:54.468Z,13.27
2018-09-19T08:54:24.897Z,8.67
2018-09-19T08:56:55.235Z,3.67
2018-09-19T08:59:25.698Z,8.17
2018-09-19T09:01:56.099Z,7.20
2018-09-19T09:04:26.457Z,9.60
2018-09-19T09:06:56.727Z,9.00
2018-09-19T09:09:27.164Z,9.07
2018-09-19T09:11:57.462Z,6.27
2018-09-19T09:14:27.932Z,13.37
2018-09-19T09:16:58.343Z,11.70
2018-09-19T09:19:28.700Z,8.10
2018-09-19T09:21:59.048Z,5.67
2018-09-19T09:24:29.494Z,6.33
2018-09-19T09:26:59.980Z,21.00
2018-09-19T09:29:30.342Z,7.47
2018-09-19T09:32:00.844Z,6.20
2018-09-19T09:34:31.509Z,3.97
2018-09-19T09:37:01.924Z,7.93
2018-09-19T09:39:32.251Z,7.77
2018-09-19T09:42:02.544Z,8.03
2018-09-19T09:44:32.922Z,6.03
2018-09-19T09:47:03.144Z,5.70
2018-09-19T09:49:33.337Z,10.57
2018-09-19T09:52:03.836Z,9.27
2018-09-19T09:54:34.217Z,6.27
2018-09-19T09:57:05.366Z,9.60
2018-09-19T09:59:35.693Z,8.47
2018-09-19T10:02:06.026Z,6.13
2018-09-19T10:04:36.344Z,6.53
2018-09-19T10:07:07.078Z,7.83
2018-09-19T10:09:37.673Z,13.27
2018-09-19T10:12:08.146Z,6.63
2018-09-19T10:14:38.543Z,14.87
2018-09-19T10:17:09.131Z,10.67
2018-09-19T10:19:39.370Z,7.03
2018-09-19T10:22:09.841Z,8.20
2018-09-19T10:24:40.212Z,4.37
2018-09-19T10:27:11.433Z,8.10
2018-09-19T10:29:41.954Z,8.63
2018-09-19T10:32:12.636Z,12.10
2018-09-19T10:34:42.955Z,15.37
2018-09-19T10:37:13.420Z,7.67
2018-09-19T10:39:43.868Z,11.87
2018-09-19T10:42:14.196Z,6.60
2018-09-19T10:44:44.646Z,11.43
2018-09-19T10:47:15.093Z,11.20
2018-09-19T10:49:45.435Z,8.50
2018-09-19T10:52:15.737Z,10.40
2018-09-19T10:54:46.155Z,8.63
2018-09-19T10:57:16.584Z,8.57
2018-09-19T10:59:47.051Z,9.40
2018-09-19T11:02:18.637Z,8.70
2018-09-19T11:04:48.904Z,7.50
2018-09-19T11:07:19.413Z,8.57
2018-09-19T11:09:50.045Z,13.23
2018-09-19T11:12:20.551Z,10.53
2018-09-19T11:14:50.813Z,6.50
2018-09-19T11:17:21.191Z,8.30
2018-09-19T11:19:51.656Z,11.63
2018-09-19T11:22:22.063Z,17.53
2018-09-19T11:24:52.619Z,8.37
2018-09-19T11:27:23.028Z,15.80
2018-09-19T11:29:53.504Z,13.40
2018-09-19T11:32:23.761Z,13.23
2018-09-19T11:34:54.216Z,6.27
2018-09-19T11:37:24.538Z,6.80
2018-09-19T11:39:55.103Z,9.63
2018-09-19T11:42:25.574Z,9.83
2018-09-19T11:44:55.950Z,11.33
2018-09-19T11:47:26.183Z,8.23
2018-09-19T11:49:56.633Z,8.30
2018-09-19T11:52:27.136Z,8.33
2018-09-19T11:54:57.592Z,9.20
2018-09-19T11:57:27.960Z,13.03
2018-09-19T11:59:58.472Z,7.90
2018-09-19T12:02:28.857Z,8.73
2018-09-19T12:04:59.238Z,9.43
2018-09-19T12:07:29.471Z,11.53
2018-09-19T12:09:59.968Z,10.93
2018-09-19T12:12:30.407Z,8.40
2018-09-19T12:15:01.160Z,8.80
2018-09-19T12:17:31.665Z,13.53
2018-09-19T12:20:02.227Z,8.30
2018-09-19T12:22:32.484Z,9.00
2018-09-19T12:25:02.899Z,6.90
2018-09-19T12:27:33.447Z,6.20
2018-09-19T12:30:04.072Z,9.50
2018-09-19T12:32:35.276Z,5.50
2018-09-19T12:35:05.928Z,14.13
2018-09-19T12:37:36.340Z,4.23
2018-09-19T12:40:07.129Z,8.60
2018-09-19T12:42:37.629Z,8.83
2018-09-19T12:45:09.719Z,12.73
2018-09-19T12:47:39.998Z,10.93
2018-09-19T12:50:10.383Z,13.13
2018-09-19T12:52:40.740Z,8.80
2018-09-19T12:55:11.265Z,7.30
2018-09-19T12:57:41.641Z,10.50
2018-09-19T13:00:12.098Z,8.83
2018-09-19T13:02:42.420Z,8.20
2018-09-19T13:05:12.933Z,4.57
2018-09-19T13:07:43.407Z,12.10
2018-09-19T13:10:13.893Z,8.47
2018-09-19T13:12:44.487Z,16.53
2018-09-19T13:15:14.812Z,6.87
2018-09-19T13:17:45.258Z,6.93
2018-09-19T13:20:15.549Z,7.43
2018-09-19T13:22:46.509Z,10.07
2018-09-19T13:25:17.025Z,8.30
2018-09-19T13:27:47.316Z,7.10
2018-09-19T13:30:17.820Z,5.90
2018-09-19T13:32:48.080Z,10.70
2018-09-19T13:35:18.452Z,9.03
2018-09-19T13:37:48.923Z,10.17
2018-09-19T13:40:19.514Z,6.27
2018-09-19T13:42:49.983Z,6.30
2018-09-19T13:45:20.153Z,8.47
2018-09-19T13:47:50.527Z,13.03
2018-09-19T13:50:39.929Z,6.63
2018-09-19T13:53:10.690Z,11.07
2018-09-19T13:55:41.024Z,7.93
2018-09-19T13:58:13.204Z,13.40
2018-09-19T14:00:43.591Z,8.50
2018-09-19T14:03:14.079Z,12.23
2018-09-19T14:05:44.412Z,4.17
2018-09-19T14:08:14.737Z,8.63
2018-09-19T14:10:45.411Z,10.27
2018-09-19T14:13:16.124Z,7.13
2018-09-19T14:15:46.688Z,14.43
2018-09-19T14:18:17.274Z,6.47
2018-09-19T14:20:47.555Z,7.00
2018-09-19T14:23:17.912Z,4.20
2018-09-19T14:25:48.399Z,13.97
2018-09-19T14:28:18.799Z,8.63
2018-09-19T14:30:49.981Z,5.17
2018-09-19T14:33:20.435Z,6.70
2018-09-19T14:35:50.968Z,12.10
2018-09-19T14:38:21.425Z,5.37
2018-09-19T14:40:51.867Z,8.13
2018-09-19T14:43:22.211Z,11.23
2018-09-19T14:45:53.004Z,10.10
2018-09-19T14:48:23.494Z,8.03
2018-09-19T14:50:54.007Z,3.40
2018-09-19T14:53:24.383Z,6.93
2018-09-19T14:55:54.662Z,9.03
2018-09-19T14:58:25.022Z,8.57
2018-09-19T15:00:55.324Z,8.17
2018-09-19T15:03:25.704Z,9.27
2018-09-19T15:05:56.195Z,6.73
2018-09-19T15:08:26.653Z,7.83
2018-09-19T15:10:57.054Z,6.07
2018-09-19T15:13:27.537Z,8.33
2018-09-19T15:15:58.040Z,15.20
2018-09-19T15:18:28.551Z,7.80
2018-09-19T15:20:58.945Z,11.30
2018-09-19T15:23:29.206Z,8.30
2018-09-19T15:25:59.553Z,21.47
2018-09-19T15:28:30.153Z,18.27
2018-09-19T15:31:00.600Z,6.73
2018-09-19T15:33:30.822Z,8.80
2018-09-19T15:36:01.338Z,10.53
2018-09-19T15:38:31.872Z,4.83
2018-09-19T15:41:02.415Z,3.80
2018-09-19T15:43:32.970Z,7.10
2018-09-19T15:46:03.375Z,7.97
2018-09-19T15:48:33.662Z,11.87
2018-09-19T15:51:03.928Z,7.10
2018-09-19T15:53:34.376Z,12.50
2018-09-19T15:56:04.729Z,8.00
2018-09-19T15:58:35.112Z,4.77
2018-09-19T16:01:05.622Z,5.33
2018-09-19T16:03:35.948Z,7.53
2018-09-19T16:06:06.462Z,7.47
2018-09-19T16:08:36.839Z,6.30
2018-09-19T16:11:07.927Z,6.40
2018-09-19T16:13:38.430Z,5.93
2018-09-19T16:16:09.571Z,9.40
2018-09-19T16:18:40.019Z,11.57
2018-09-19T16:21:10.624Z,8.17
2018-09-19T16:23:40.946Z,14.00
2018-09-19T16:26:11.403Z,5.80
2018-09-19T16:28:41.807Z,11.50
2018-09-19T16:31:12.230Z,8.00
2018-09-19T16:33:42.735Z,5.57
2018-09-19T16:36:13.330Z,7.97
2018-09-19T16:38:43.684Z,12.83
2018-09-19T16:41:13.971Z,10.97
2018-09-19T16:43:44.460Z,3.87
2018-09-19T16:46:14.856Z,9.67
2018-09-19T16:48:45.296Z,5.57
2018-09-19T16:51:15.688Z,5.40
2018-09-19T16:53:46.159Z,10.43
2018-09-19T16:56:16.702Z,6.80
2018-09-19T16:58:47.133Z,7.83
2018-09-19T17:01:17.569Z,7.67
2018-09-19T17:03:48.070Z,3.87
2018-09-19T17:06:18.424Z,10.40
2018-09-19T17:08:48.800Z,11.40
2018-09-19T17:11:19.301Z,10.83
2018-09-19T17:13:50.184Z,8.03
2018-09-19T17:16:20.926Z,6.30
2018-09-19T17:18:51.364Z,8.90
2018-09-19T17:21:21.971Z,13.43
2018-09-19T17:23:52.362Z,6.73
2018-09-19T17:26:22.661Z,15.17
2018-09-19T17:28:53.072Z,4.40
2018-09-19T17:31:23.526Z,5.47
2018-09-19T17:33:53.992Z,16.00
2018-09-19T17:36:24.233Z,11.23
2018-09-19T17:38:54.653Z,9.97
2018-09-19T17:41:25.159Z,8.10
2018-09-19T17:43:55.682Z,5.77
2018-09-19T17:46:25.882Z,7.90
2018-09-19T17:48:56.389Z,10.87
2018-09-19T17:51:27.000Z,6.83
2018-09-19T17:53:57.539Z,8.73
2018-09-19T17:56:27.999Z,6.07
2018-09-19T17:58:58.391Z,6.30
2018-09-19T18:01:28.807Z,10.10
2018-09-19T18:03:59.399Z,9.93
2018-09-19T18:06:29.889Z,8.80
2018-09-19T18:09:00.196Z,7.00
2018-09-19T18:11:30.596Z,4.60
2018-09-19T18:14:01.058Z,5.40
2018-09-19T18:16:31.604Z,4.87
2018-09-19T18:19:02.006Z,7.93
2018-09-19T18:21:32.584Z,7.33
2018-09-19T18:24:02.857Z,9.20
2018-09-19T18:26:33.304Z,10.50
2018-09-19T18:29:03.682Z,8.33
2018-09-19T18:31:34.252Z,9.37
2018-09-19T18:34:04.748Z,11.90
2018-09-19T18:36:35.038Z,11.70
2018-09-19T18:39:06.357Z,10.20
2018-09-19T18:41:37.388Z,8.33
2018-09-19T18:44:07.994Z,6.87
2018-09-19T18:46:38.500Z,7.17
2018-09-19T18:49:08.891Z,6.53
2018-09-19T18:51:39.460Z,6.50
2018-09-19T18:54:09.936Z,5.67
2018-09-19T18:56:40.508Z,9.70
2018-09-19T18:59:10.973Z,11.70
2018-09-19T19:01:41.451Z,8.50
2018-09-19T19:04:12.327Z,12.03
2018-09-19T19:06:42.918Z,17.17
2018-09-19T19:09:13.871Z,7.00
2018-09-19T19:11:44.520Z,10.50
2018-09-19T19:14:15.347Z,7.20
2018-09-19T19:16:45.949Z,9.67
2018-09-19T19:19:16.562Z,8.57
2018-09-19T19:21:47.150Z,13.20
2018-09-19T19:24:17.652Z,7.90
2018-09-19T19:26:48.232Z,10.63
2018-09-19T19:29:18.482Z,8.10
2018-09-19T19:31:48.920Z,10.83
2018-09-19T19:34:19.308Z,6.07
2018-09-19T19:36:49.924Z,9.57
2018-09-19T19:39:20.436Z,5.47
2018-09-19T19:41:50.935Z,5.60
2018-09-19T19:44:21.190Z,6.63
2018-09-19T19:46:51.499Z,9.80
2018-09-19T19:49:22.063Z,6.17
2018-09-19T19:51:52.573Z,15.83
2018-09-19T19:54:22.914Z,7.93
2018-09-19T19:56:53.255Z,12.63
2018-09-19T19:59:23.736Z,5.43
2018-09-19T20:01:54.101Z,5.83
2018-09-19T20:04:24.506Z,12.23
2018-09-19T20:06:54.963Z,6.57
2018-09-19T20:09:25.226Z,8.47
2018-09-19T20:11:55.622Z,7.43
2018-09-19T20:14:25.921Z,10.53
2018-09-19T20:16:56.385Z,10.40
2018-09-19T20:19:27.145Z,7.43
2018-09-19T20:21:57.524Z,6.53
2018-09-19T20:24:27.780Z,6.67
2018-09-19T20:26:59.000Z,12.53
2018-09-19T20:29:29.259Z,11.63
2018-09-19T20:31:59.649Z,10.80
2018-09-19T20:34:30.371Z,6.27
2018-09-19T20:37:00.980Z,8.03
2018-09-19T20:39:31.587Z,6.83
2018-09-19T20:42:01.904Z,7.63
2018-09-19T20:44:32.285Z,8.70
2018-09-19T20:47:02.790Z,7.83
2018-09-19T20:49:33.302Z,18.47
2018-09-19T20:52:03.813Z,10.20
2018-09-19T20:54:34.403Z,6.90
2018-09-19T20:57:04.997Z,4.27
2018-09-19T20:59:35.585Z,5.33
2018-09-19T21:02:06.060Z,6.80
2018-09-19T21:04:36.515Z,7.10
2018-09-19T21:07:07.001Z,7.30
2018-09-19T21:09:37.960Z,9.20
2018-09-19T21:12:08.375Z,8.87
2018-09-19T21:14:38.730Z,11.80
2018-09-19T21:17:09.279Z,12.23
2018-09-19T21:19:39.796Z,13.00
2018-09-19T21:22:10.228Z,11.47
2018-09-19T21:24:40.631Z,9.90
2018-09-19T21:27:10.973Z,8.07
2018-09-19T21:29:41.358Z,8.63
2018-09-19T21:32:12.047Z,6.93
2018-09-19T21:34:42.426Z,6.80
2018-09-19T21:37:12.776Z,13.93
2018-09-19T21:39:43.347Z,8.93
2018-09-19T21:42:13.745Z,13.37
2018-09-19T21:44:44.156Z,15.53
2018-09-19T21:47:14.524Z,8.13
2018-09-19T21:49:44.798Z,9.00
2018-09-19T21:52:15.172Z,12.23
2018-09-19T21:54:45.767Z,12.27
2018-09-19T21:57:16.208Z,12.80
2018-09-19T21:59:46.682Z,9.10
2018-09-19T22:02:18.387Z,7.07
2018-09-19T22:04:49.435Z,9.27
2018-09-19T22:07:19.860Z,16.50
2018-09-19T22:09:50.230Z,8.00
2018-09-19T22:12:20.643Z,7.50
2018-09-19T22:14:50.997Z,11.43
2018-09-19T22:17:21.435Z,8.90
2018-09-19T22:19:52.080Z,14.47
2018-09-19T22:22:22.471Z,9.70
2018-09-19T22:24:52.967Z,9.00
2018-09-19T22:27:23.484Z,5.53
2018-09-19T22:29:53.845Z,9.63
2018-09-19T22:32:24.326Z,10.40
2018-09-19T22:34:54.739Z,13.63
2018-09-19T22:37:25.243Z,10.93
2018-09-19T22:39:55.825Z,8.37
2018-09-19T22:42:26.646Z,11.93
2018-09-19T22:44:57.199Z,17.97
2018-09-19T22:47:27.688Z,15.07
2018-09-19T22:49:58.152Z,25.30
2018-09-19T22:52:28.512Z,10.43
2018-09-19T22:54:58.980Z,14.30
2018-09-19T22:57:29.563Z,11.87
2018-09-19T22:59:59.900Z,13.40
2018-09-19T23:02:30.252Z,14.30
2018-09-19T23:05:00.524Z,19.30
2018-09-19T23:07:30.955Z,9.03
2018-09-19T23:10:01.462Z,14.63
2018-09-19T23:12:31.817Z,16.03
2018-09-19T23:15:02.060Z,14.17
2018-09-19T23:17:32.342Z,9.33
2018-09-19T23:20:02.785Z,8.30
2018-09-19T23:22:32.991Z,7.30
2018-09-19T23:25:03.389Z,12.20
2018-09-19T23:27:33.718Z,10.03
2018-09-19T23:30:04.180Z,13.83
2018-09-19T23:32:34.535Z,8.60
2018-09-19T23:35:05.051Z,9.83
2018-09-19T23:37:35.510Z,15.47
2018-09-19T23:40:06.195Z,10.90
2018-09-19T23:42:36.868Z,14.60
2018-09-19T23:45:07.745Z,11.10
2018-09-19T23:47:38.075Z,12.93
2018-09-19T23:50:08.580Z,9.80
2018-09-19T23:52:38.907Z,14.47
2018-09-19T23:55:09.309Z,12.00
2018-09-19T23:57:39.671Z,23.17
